Mauston, WI

11:06 AM CST on January 19, 2017 (GMT -0600)
Juneau County Weather | | Change Station
Active Advisory: Dense Fog Advisory

Elev 873 ft 43.80 °N, 90.07 °W | Updated 40 seconds ago

Fog
Fog
32.9 °F
Feels Like 26 °F
N
7.3
Wind Variable Wind from SE
Gusts 9.2 mph

Today
High -- | Low -- °F
--% Chance of Precip.
Yesterday
High -- | Low -- °F
Precip. -- in
Pressure 29.93 in
Visibility 2.0 miles
Clouds Overcast 300 ft
Windchill 26 °F
Dew Point 33 °F
Humidity 99%
Rainfall 0.00 in
Snow Depth Not available.
7:28 AM 4:54 PM
Waning Gibbous, 52% visible
METAR KVOK 191658Z 15006KT 2SM BR OVC003 00/00 A2989 RMK AO2A SLP135
Pressure 29.93 in
Visibility 2.0 miles
Clouds Overcast 300 ft
Windchill 26 °F
Dew Point 33 °F
Humidity 99%
Rainfall 0.00 in
Snow Depth Not available.
7:28 AM 4:54 PM
Waning Gibbous, 52% visible
METAR KVOK 191658Z 15006KT 2SM BR OVC003 00/00 A2989 RMK AO2A SLP135

Get Your Daily Forecast Email!

Thanks for signing up!

Be on the lookout for a verification email in your inbox.

You'll start receiving the daily forecast at 8 AM.

×

10-Day Weather Forecast

Almanac

Astronomy

Jan. 19, 2017 Rise Set
Actual Time
Civil Twilight
Nautical Twilight
Astronomical Twilight
Moon
Length of Visible Light
Length of Day
Tomorrow will be .
, % of the Moon is Illuminated

Today's Extremes

State Highs State Lows

Community

WunderPhotos

Upload Photos

1,962,540 photos uploaded!

WunderBlog® & News

Nearby

Air Quality

  Air Quality AQ Index Pollutant
Not available.

Snow Depth

Station Depth Elevation

Earthquake Activity

City Distance Mag. Time & Date
Minimum magnitude displayed is 2.5.

Coastal Water Temperatures

Place Temperature

Stations

Nearby Weather Stations

Station Location Temp. Windchill Dew Point Humidity Wind Precip. Elev Updated Type
                   

Watches & Warnings

Dense Fog Advisory
Issued: 8:38 AM CST Jan. 19, 2017 – National Weather Service

... Dense fog advisory now in effect until noon CST today...

* visibilities 1/4 mile or less.

* Motorists should be prepared for severely reduced visibilities
while traveling this morning. In addition... where temperatures
were at freezing icy spots have developed on roads. Slow down
and exercise caution.

Precautionary/preparedness actions...

A dense fog advisory means visibilities will frequently be
reduced to less than one quarter mile. If driving... slow down...
use your headlights... and leave plenty of distance ahead of you.



Wetenkamp